Time;durP1;ratioP1;P1;durP2;ratioP2;P2;SDS_P1;SDS_P2;PMS_P1;PMS_P2;Temp;Humidity;BMP_temperature;BMP_pressure;BME280_temperature;BME280_humidity;BME280_pressure;Samples;Min_cycle;Max_cycle;Signal;HPM_P1;HPM_P2
2022/11/20 00:01:21;;;;;;;30.52;13.60;;;;;;;;;;5013257;28;20107;-67
2022/11/20 00:03:48;;;;;;;41.42;14.73;;;;;;;;;;5013176;28;20100;-67
2022/11/20 00:06:17;;;;;;;39.97;15.52;;;;;;;;;;5013205;28;20072;-67
2022/11/20 00:08:44;;;;;;;61.35;16.23;;;;;;;;;;5012275;28;20456;-67
2022/11/20 00:11:13;;;;;;;33.67;13.98;;;;;;;;;;5012901;28;20078;-68
2022/11/20 00:13:43;;;;;;;37.70;13.70;;;;;;;;;;5013048;28;20144;-67
2022/11/20 00:16:11;;;;;;;23.15;12.30;;;;;;;;;;5012804;28;20089;-67
2022/11/20 00:18:37;;;;;;;30.45;12.85;;;;;;;;;;5012326;28;20049;-67
2022/11/20 00:21:25;;;;;;;22.52;12.43;;;;;;;;;;5012828;28;20096;-67
2022/11/20 00:23:53;;;;;;;24.13;12.38;;;;;;;;;;5012334;28;20207;-67
2022/11/20 00:26:21;;;;;;;24.15;13.55;;;;;;;;;;5032644;28;20061;-66
2022/11/20 00:28:53;;;;;;;22.38;13.13;;;;;;;;;;5031864;28;20477;-66
2022/11/20 00:31:19;;;;;;;26.55;13.20;;;;;;;;;;5032397;28;20092;-67
2022/11/20 00:33:46;;;;;;;24.40;13.25;;;;;;;;;;5032277;28;20088;-67
2022/11/20 00:36:15;;;;;;;25.33;14.23;;;;;;;;;;5032108;28;20049;-67
2022/11/20 00:38:42;;;;;;;24.55;12.57;;;;;;;;;;5016901;28;20103;-68
2022/11/20 00:41:11;;;;;;;40.10;13.85;;;;;;;;;;5013572;28;20401;-67
2022/11/20 00:43:38;;;;;;;28.40;14.57;;;;;;;;;;5013020;28;20133;-67
2022/11/20 00:46:06;;;;;;;39.25;15.73;;;;;;;;;;5012784;28;20172;-68
2022/11/20 00:48:33;;;;;;;31.50;14.80;;;;;;;;;;5011917;28;20421;-67
2022/11/20 00:51:00;;;;;;;31.80;15.38;;;;;;;;;;5012343;28;20491;-67
2022/11/20 00:53:26;;;;;;;53.50;16.15;;;;;;;;;;5012376;28;20089;-68
2022/11/20 00:56:00;;;;;;;29.40;14.30;;;;;;;;;;5012113;28;20104;-67
2022/11/20 00:58:29;;;;;;;;;;;;;;;;;;5012121;28;20046;-67
2022/11/20 01:01:02;;;;;;;27.48;14.52;;;;;;;;;;5011995;28;19925;-66
2022/11/20 01:03:31;;;;;;;55.47;16.08;;;;;;;;;;5011240;28;20104;-67
2022/11/20 01:06:06;;;;;;;32.58;15.30;;;;;;;;;;5011886;28;20449;-68
2022/11/20 01:08:34;;;;;;;63.72;16.77;;;;;;;;;;5011652;28;20189;-68
2022/11/20 01:11:01;;;;;;;52.53;16.73;;;;;;;;;;5012080;28;20104;-68
2022/11/20 01:13:38;;;;;;;37.25;16.30;;;;;;;;;;5012305;28;20124;-68
2022/11/20 01:16:18;;;;;;;103.72;17.83;;;;;;;;;;5012472;28;20042;-68
2022/11/20 01:18:47;;;;;;;71.95;15.75;;;;;;;;;;5011485;28;20054;-67
2022/11/20 01:21:15;;;;;;;58.05;16.48;;;;;;;;;;5012053;28;20197;-67
2022/11/20 01:23:43;;;;;;;62.90;17.05;;;;;;;;;;5011885;28;20046;-67
2022/11/20 01:26:12;;;;;;;42.80;15.80;;;;;;;;;;5011776;28;20116;-68
2022/11/20 01:28:40;;;;;;;25.63;13.30;;;;;;;;;;5011077;28;20410;-68
2022/11/20 01:31:16;;;;;;;37.03;14.95;;;;;;;;;;5012020;28;20374;-67
2022/11/20 01:33:44;;;;;;;40.40;14.82;;;;;;;;;;5011678;28;20054;-68
2022/11/20 01:36:11;;;;;;;32.42;14.05;;;;;;;;;;5011946;28;20046;-68
2022/11/20 01:38:38;;;;;;;82.28;17.23;;;;;;;;;;5011077;28;20576;-67
2022/11/20 01:41:05;;;;;;;97.38;16.05;;;;;;;;;;5011621;28;20091;-68
2022/11/20 01:43:32;;;;;;;65.18;16.67;;;;;;;;;;5011570;28;20093;-68
2022/11/20 01:46:18;;;;;;;88.95;17.10;;;;;;;;;;5011493;28;20089;-67
2022/11/20 01:48:54;;;;;;;49.22;14.85;;;;;;;;;;5011282;28;20136;-67
2022/11/20 01:51:35;;;;;;;35.10;13.82;;;;;;;;;;5011509;28;20100;-67
2022/11/20 01:54:04;;;;;;;28.02;13.55;;;;;;;;;;4994127;28;20050;-67
2022/11/20 01:56:31;;;;;;;31.13;12.40;;;;;;;;;;4994416;28;20057;-67
2022/11/20 01:59:01;;;;;;;21.30;11.98;;;;;;;;;;4977832;28;20100;-67
2022/11/20 02:01:27;;;;;;;22.33;13.75;;;;;;;;;;4978443;28;20046;-66
2022/11/20 02:03:54;;;;;;;19.70;11.25;;;;;;;;;;5011343;28;20128;-66
2022/11/20 02:06:26;;;;;;;20.85;11.45;;;;;;;;;;5009614;28;20455;-67
2022/11/20 02:08:52;;;;;;;18.48;11.32;;;;;;;;;;4996961;28;20103;-66
2022/11/20 02:11:19;;;;;;;18.30;11.25;;;;;;;;;;5013788;28;20045;-67
2022/11/20 02:13:46;;;;;;;22.00;12.48;;;;;;;;;;5031615;28;20131;-66
2022/11/20 02:16:33;;;;;;;23.05;12.60;;;;;;;;;;5001276;28;20053;-67
2022/11/20 02:19:00;;;;;;;19.35;11.90;;;;;;;;;;5034185;28;20049;-67
2022/11/20 02:21:37;;;;;;;18.42;11.63;;;;;;;;;;5034394;28;20049;-66
2022/11/20 02:24:11;;;;;;;19.02;11.43;;;;;;;;;;5017160;28;20049;-67
2022/11/20 02:26:40;;;;;;;21.00;11.93;;;;;;;;;;5000476;28;20045;-68
2022/11/20 02:29:06;;;;;;;20.20;11.13;;;;;;;;;;5013613;28;20180;-67
2022/11/20 02:31:37;;;;;;;16.23;10.00;;;;;;;;;;5032446;28;20400;-67
2022/11/20 02:34:04;;;;;;;10.85;7.82;;;;;;;;;;5031624;28;20058;-68
2022/11/20 02:36:32;;;;;;;10.98;7.65;;;;;;;;;;5015133;28;20045;-67
2022/11/20 02:38:58;;;;;;;9.70;6.75;;;;;;;;;;4995677;28;20054;-67
2022/11/20 02:41:36;;;;;;;10.88;6.55;;;;;;;;;;4997199;28;20125;-66
2022/11/20 02:44:03;;;;;;;7.43;5.93;;;;;;;;;;5014705;28;20045;-67
2022/11/20 02:46:31;;;;;;;8.40;6.38;;;;;;;;;;5014667;28;20046;-67
2022/11/20 02:48:58;;;;;;;10.77;6.78;;;;;;;;;;5013886;28;20115;-66
2022/11/20 02:51:24;;;;;;;10.15;6.85;;;;;;;;;;5014589;28;20124;-67
2022/11/20 02:53:51;;;;;;;8.70;6.65;;;;;;;;;;5014354;28;20100;-67
2022/11/20 02:56:18;;;;;;;7.82;5.72;;;;;;;;;;5014205;28;20046;-67
2022/11/20 02:58:44;;;;;;;8.43;5.47;;;;;;;;;;5013742;28;20092;-66
2022/11/20 03:01:11;;;;;;;7.10;4.82;;;;;;;;;;5014411;28;20060;-66
2022/11/20 03:03:38;;;;;;;5.82;4.63;;;;;;;;;;5014244;28;20046;-66
2022/11/20 03:06:05;;;;;;;5.55;4.53;;;;;;;;;;5014810;28;20046;-68
2022/11/20 03:08:31;;;;;;;7.47;4.60;;;;;;;;;;5013509;28;20100;-68
2022/11/20 03:11:04;;;;;;;9.50;4.50;;;;;;;;;;5017896;28;20045;-68
2022/11/20 03:13:31;;;;;;;6.22;5.03;;;;;;;;;;5034154;28;20080;-67
2022/11/20 03:15:58;;;;;;;6.57;4.70;;;;;;;;;;5034151;28;20045;-68
2022/11/20 03:18:28;;;;;;;5.60;4.18;;;;;;;;;;5022085;28;20057;-69
2022/11/20 03:20:58;;;;;;;5.72;4.50;;;;;;;;;;5014050;28;20050;-69
2022/11/20 03:23:25;;;;;;;8.85;4.45;;;;;;;;;;5014265;28;20406;-67
2022/11/20 03:25:52;;;;;;;5.32;4.55;;;;;;;;;;5013212;28;20042;-68
2022/11/20 03:28:18;;;;;;;7.82;4.47;;;;;;;;;;5013601;28;20149;-69
2022/11/20 03:30:45;;;;;;;5.90;3.75;;;;;;;;;;5013867;28;20551;-68
2022/11/20 03:33:12;;;;;;;4.75;3.47;;;;;;;;;;5018037;28;20127;-66
2022/11/20 03:35:38;;;;;;;4.25;3.10;;;;;;;;;;5033240;28;20073;-67
2022/11/20 03:38:05;;;;;;;5.60;3.15;;;;;;;;;;5033190;28;20038;-68
2022/11/20 03:40:33;;;;;;;4.28;3.10;;;;;;;;;;5031863;28;20054;-67
2022/11/20 03:42:59;;;;;;;6.10;3.58;;;;;;;;;;5017974;28;20080;-68
2022/11/20 03:45:26;;;;;;;4.22;3.83;;;;;;;;;;5033809;28;20041;-66
2022/11/20 03:47:53;;;;;;;5.63;3.92;;;;;;;;;;5040006;28;20107;-66
2022/11/20 03:50:19;;;;;;;5.07;3.55;;;;;;;;;;5052350;28;20111;-68
2022/11/20 03:52:46;;;;;;;5.10;3.65;;;;;;;;;;5052848;28;20061;-68
2022/11/20 03:55:12;;;;;;;4.85;3.33;;;;;;;;;;5052810;28;20053;-67
2022/11/20 03:57:39;;;;;;;5.35;3.83;;;;;;;;;;5051826;28;20501;-66
2022/11/20 04:00:06;;;;;;;4.47;4.05;;;;;;;;;;5050738;28;20056;-67
2022/11/20 04:03:00;;;;;;;3.25;2.92;;;;;;;;;;5035633;28;20058;-68
2022/11/20 04:05:26;;;;;;;5.03;3.72;;;;;;;;;;5030682;28;20042;-67
2022/11/20 04:07:53;;;;;;;3.72;3.38;;;;;;;;;;5030816;28;20088;-68
2022/11/20 04:10:20;;;;;;;3.42;3.08;;;;;;;;;;5031109;28;20057;-69
2022/11/20 04:12:46;;;;;;;4.28;3.38;;;;;;;;;;5031498;28;20054;-67
2022/11/20 04:15:13;;;;;;;3.88;3.17;;;;;;;;;;5030647;28;20116;-67
2022/11/20 04:17:40;;;;;;;4.30;3.10;;;;;;;;;;5022309;28;20464;-68
2022/11/20 04:20:07;;;;;;;5.28;3.80;;;;;;;;;;5013836;28;20054;-69
2022/11/20 04:22:33;;;;;;;6.63;3.78;;;;;;;;;;5026188;28;20054;-66
2022/11/20 04:25:00;;;;;;;4.32;3.90;;;;;;;;;;5037769;28;20030;-66
2022/11/20 04:27:26;;;;;;;3.80;3.38;;;;;;;;;;5037806;28;20060;-66
2022/11/20 04:29:53;;;;;;;3.80;3.30;;;;;;;;;;5019749;28;20050;-69
2022/11/20 04:32:20;;;;;;;4.55;3.63;;;;;;;;;;5014437;28;20061;-69
2022/11/20 04:34:46;;;;;;;4.15;3.15;;;;;;;;;;5013719;28;20054;-70
2022/11/20 04:37:13;;;;;;;4.18;3.40;;;;;;;;;;5029703;28;20079;-69
2022/11/20 04:39:39;;;;;;;3.97;3.33;;;;;;;;;;5032502;28;20100;-68
2022/11/20 04:44:53;;;;;;;3.40;3.08;;;;;;;;;;5017835;28;20057;-67
2022/11/20 04:47:20;;;;;;;4.32;3.30;;;;;;;;;;5032664;28;20045;-68
2022/11/20 04:49:47;;;;;;;4.00;3.33;;;;;;;;;;5031758;28;20103;-69
2022/11/20 04:52:14;;;;;;;4.95;3.30;;;;;;;;;;5032564;28;20093;-67
2022/11/20 04:54:40;;;;;;;3.83;3.00;;;;;;;;;;5032443;28;20049;-69
2022/11/20 04:57:07;;;;;;;3.75;2.90;;;;;;;;;;5031583;28;20562;-69
2022/11/20 04:59:39;;;;;;;3.70;3.13;;;;;;;;;;5031548;28;20069;-67
2022/11/20 05:02:06;;;;;;;4.55;3.35;;;;;;;;;;5032350;28;20455;-69
2022/11/20 05:04:33;;;;;;;4.28;3.45;;;;;;;;;;5032166;28;20049;-69
2022/11/20 05:07:00;;;;;;;3.95;3.00;;;;;;;;;;5017904;28;20049;-69
2022/11/20 05:09:26;;;;;;;6.60;3.45;;;;;;;;;;4994228;28;20080;-68
2022/11/20 05:11:53;;;;;;;4.07;3.35;;;;;;;;;;5012459;28;20115;-68
2022/11/20 05:14:20;;;;;;;4.57;3.33;;;;;;;;;;5012167;28;20061;-69
2022/11/20 05:16:46;;;;;;;4.35;3.00;;;;;;;;;;5023924;28;20053;-68
2022/11/20 05:19:13;;;;;;;4.13;2.80;;;;;;;;;;5031194;28;20108;-68
2022/11/20 05:21:39;;;;;;;6.72;2.97;;;;;;;;;;5031776;28;20045;-70
2022/11/20 05:24:06;;;;;;;3.40;3.00;;;;;;;;;;5032093;28;20057;-68
2022/11/20 05:26:33;;;;;;;4.35;3.25;;;;;;;;;;5027399;28;20447;-69
2022/11/20 05:29:00;;;;;;;5.72;3.50;;;;;;;;;;5031202;28;20103;-69
2022/11/20 05:31:26;;;;;;;3.42;3.13;;;;;;;;;;5032101;28;20049;-68
2022/11/20 05:33:55;;;;;;;3.47;3.17;;;;;;;;;;5031141;28;20068;-69
2022/11/20 05:36:22;;;;;;;3.53;3.00;;;;;;;;;;5016460;28;20084;-68
2022/11/20 05:38:48;;;;;;;3.25;2.92;;;;;;;;;;5018453;28;20487;-68
2022/11/20 05:41:18;;;;;;;3.50;3.17;;;;;;;;;;5031590;28;20049;-68
2022/11/20 05:43:46;;;;;;;3.83;3.20;;;;;;;;;;5031633;28;20496;-69
2022/11/20 05:46:14;;;;;;;3.45;2.75;;;;;;;;;;5031395;28;20076;-68
2022/11/20 05:48:42;;;;;;;3.83;3.10;;;;;;;;;;5045759;28;20049;-67
2022/11/20 05:51:10;;;;;;;3.50;3.20;;;;;;;;;;5052106;28;20049;-69
2022/11/20 05:53:37;;;;;;;3.90;3.22;;;;;;;;;;5035549;28;20125;-68
2022/11/20 05:56:11;;;;;;;;;;;;;;;;;;5035927;28;20049;-70
2022/11/20 05:58:39;;;;;;;3.35;2.95;;;;;;;;;;5034402;28;19928;-69
2022/11/20 06:01:06;;;;;;;3.60;2.95;;;;;;;;;;5035480;28;20060;-68
2022/11/20 06:03:33;;;;;;;8.32;3.22;;;;;;;;;;5035969;28;20551;-69
2022/11/20 06:06:00;;;;;;;4.38;2.83;;;;;;;;;;5035481;28;20045;-68
2022/11/20 06:08:28;;;;;;;3.63;2.88;;;;;;;;;;5034672;28;20050;-69
2022/11/20 06:10:55;;;;;;;4.60;2.75;;;;;;;;;;5035096;28;20405;-69
2022/11/20 06:13:22;;;;;;;3.42;2.80;;;;;;;;;;5035078;28;20057;-68
2022/11/20 06:15:52;;;;;;;2.90;2.38;;;;;;;;;;5034947;28;20111;-69
2022/11/20 06:18:19;;;;;;;3.78;3.08;;;;;;;;;;5034855;28;20404;-69
2022/11/20 06:20:46;;;;;;;4.13;2.90;;;;;;;;;;5034786;28;20057;-68
2022/11/20 06:23:13;;;;;;;3.67;2.65;;;;;;;;;;5034983;28;20054;-69
2022/11/20 06:25:40;;;;;;;2.88;2.58;;;;;;;;;;5034827;28;20045;-69
2022/11/20 06:28:08;;;;;;;2.90;2.60;;;;;;;;;;5041327;28;20446;-69
2022/11/20 06:30:35;;;;;;;8.20;2.95;;;;;;;;;;5054643;28;20098;-69
2022/11/20 06:33:02;;;;;;;4.72;3.20;;;;;;;;;;5048126;28;20053;-68
2022/11/20 06:35:28;;;;;;;2.97;2.67;;;;;;;;;;5035840;28;20052;-68
2022/11/20 06:37:56;;;;;;;6.93;2.80;;;;;;;;;;5034119;28;20049;-68
2022/11/20 06:40:22;;;;;;;4.07;2.60;;;;;;;;;;5034473;28;20496;-68
2022/11/20 06:42:49;;;;;;;3.40;2.72;;;;;;;;;;5034691;28;20045;-68
2022/11/20 06:45:16;;;;;;;4.43;2.70;;;;;;;;;;5034374;28;20049;-69
2022/11/20 06:47:42;;;;;;;5.40;3.20;;;;;;;;;;5034451;28;20049;-67
2022/11/20 06:50:09;;;;;;;3.65;2.72;;;;;;;;;;5034041;28;20555;-69
2022/11/20 06:52:35;;;;;;;4.43;2.60;;;;;;;;;;5034375;28;20046;-69
2022/11/20 06:55:09;;;;;;;3.20;2.90;;;;;;;;;;5034411;28;20045;-68
2022/11/20 06:57:35;;;;;;;3.30;2.50;;;;;;;;;;5025818;28;20050;-69
2022/11/20 07:00:02;;;;;;;4.53;2.70;;;;;;;;;;5015649;28;20417;-68
2022/11/20 07:02:29;;;;;;;4.05;2.85;;;;;;;;;;5031519;28;20123;-69
2022/11/20 07:04:56;;;;;;;5.22;4.20;;;;;;;;;;5024013;28;20049;-68
2022/11/20 07:07:22;;;;;;;5.90;4.80;;;;;;;;;;5021115;28;20046;-69
2022/11/20 07:09:49;;;;;;;4.18;3.00;;;;;;;;;;5029301;28;20081;-68
2022/11/20 07:12:15;;;;;;;3.65;2.60;;;;;;;;;;5014217;28;20049;-68
2022/11/20 07:14:42;;;;;;;3.25;2.90;;;;;;;;;;5014274;28;20413;-69
2022/11/20 07:17:09;;;;;;;4.93;3.20;;;;;;;;;;5012974;28;20046;-69
2022/11/20 07:19:35;;;;;;;3.10;2.80;;;;;;;;;;5013568;28;20061;-67
2022/11/20 07:22:02;;;;;;;3.45;3.15;;;;;;;;;;5031751;28;20100;-68
2022/11/20 07:24:28;;;;;;;2.72;2.47;;;;;;;;;;5032160;28;20417;-69
2022/11/20 07:26:55;;;;;;;4.68;2.40;;;;;;;;;;5004244;28;20096;-68
2022/11/20 07:29:22;;;;;;;4.70;2.15;;;;;;;;;;5025012;28;20420;-69
2022/11/20 07:31:49;;;;;;;2.50;2.30;;;;;;;;;;5031109;28;20053;-68
2022/11/20 07:34:16;;;;;;;2.45;2.25;;;;;;;;;;5031531;28;20049;-69
2022/11/20 07:36:42;;;;;;;4.25;2.33;;;;;;;;;;5025370;28;20038;-68
2022/11/20 07:39:09;;;;;;;4.88;2.72;;;;;;;;;;5010940;28;20065;-68
2022/11/20 07:41:36;;;;;;;3.70;2.17;;;;;;;;;;5011883;28;20049;-67
2022/11/20 07:44:02;;;;;;;3.70;2.92;;;;;;;;;;5021699;28;20053;-69
2022/11/20 07:46:29;;;;;;;3.35;2.25;;;;;;;;;;5014882;28;20042;-68
2022/11/20 07:48:56;;;;;;;2.85;2.20;;;;;;;;;;5010877;28;20587;-69
2022/11/20 07:51:23;;;;;;;3.25;2.35;;;;;;;;;;5011906;28;20053;-69
2022/11/20 07:53:53;;;;;;;4.25;2.50;;;;;;;;;;5021704;28;20116;-68
2022/11/20 07:56:19;;;;;;;4.43;2.60;;;;;;;;;;5026028;28;20390;-68
2022/11/20 07:58:46;;;;;;;2.90;2.05;;;;;;;;;;5010731;28;20057;-67
2022/11/20 08:01:13;;;;;;;2.92;2.20;;;;;;;;;;5011413;28;20054;-69
2022/11/20 08:03:39;;;;;;;3.38;2.10;;;;;;;;;;5022791;28;20100;-69
2022/11/20 08:06:07;;;;;;;4.47;2.63;;;;;;;;;;5028013;28;20053;-69
2022/11/20 08:08:33;;;;;;;5.22;2.92;;;;;;;;;;5017098;28;20053;-68
2022/11/20 08:16:35;;;;;;;4.00;2.50;;;;;;;;;;5011417;28;20056;-68
2022/11/20 08:19:02;;;;;;;2.70;1.83;;;;;;;;;;4992721;28;20073;-68
2022/11/20 08:21:30;;;;;;;4.68;2.30;;;;;;;;;;5016259;28;20054;-67
2022/11/20 08:24:03;;;;;;;4.60;3.03;;;;;;;;;;5029830;28;20053;-67
2022/11/20 08:26:30;;;;;;;3.63;2.92;;;;;;;;;;5023164;28;20128;-69
2022/11/20 08:28:57;;;;;;;5.85;3.40;;;;;;;;;;5013600;28;20056;-67
2022/11/20 08:31:25;;;;;;;4.93;2.67;;;;;;;;;;5014253;28;20050;-69
2022/11/20 08:33:52;;;;;;;3.90;2.28;;;;;;;;;;5012448;28;20046;-69
2022/11/20 08:36:19;;;;;;;3.05;1.95;;;;;;;;;;5008088;28;20049;-69
2022/11/20 08:38:48;;;;;;;2.85;2.40;;;;;;;;;;5023606;28;20057;-69
2022/11/20 08:41:25;;;;;;;1.80;1.40;;;;;;;;;;5009935;28;20415;-74
2022/11/20 08:44:04;;;;;;;2.45;1.55;;;;;;;;;;5029076;28;20057;-71
2022/11/20 08:46:37;;;;;;;1.55;1.45;;;;;;;;;;5029414;28;20081;-70
2022/11/20 08:49:05;;;;;;;1.50;1.40;;;;;;;;;;5027050;28;20099;-70
2022/11/20 08:51:33;;;;;;;2.13;1.60;;;;;;;;;;5030176;28;20152;-70
2022/11/20 08:54:00;;;;;;;2.22;1.48;;;;;;;;;;5029819;28;20053;-70
2022/11/20 08:56:27;;;;;;;2.35;1.73;;;;;;;;;;5030691;28;20051;-71
2022/11/20 08:58:54;;;;;;;3.22;2.00;;;;;;;;;;5029589;28;20095;-71
2022/11/20 09:01:40;;;;;;;2.50;1.33;;;;;;;;;;5028534;28;20535;-70
2022/11/20 09:04:07;;;;;;;2.47;1.50;;;;;;;;;;5030256;28;20053;-69
2022/11/20 09:06:34;;;;;;;1.52;1.17;;;;;;;;;;5029722;28;20299;-69
2022/11/20 09:09:00;;;;;;;0.95;0.88;;;;;;;;;;5029486;28;20060;-70
2022/11/20 09:11:32;;;;;;;1.38;1.17;;;;;;;;;;5030036;28;20492;-70
2022/11/20 09:13:59;;;;;;;1.73;1.10;;;;;;;;;;5026272;28;20057;-70
2022/11/20 09:16:26;;;;;;;1.75;1.33;;;;;;;;;;5012351;28;20057;-69
2022/11/20 09:18:53;;;;;;;0.95;0.85;;;;;;;;;;5029325;28;20451;-70
2022/11/20 09:21:39;;;;;;;1.00;0.90;;;;;;;;;;5030316;28;20053;-70
2022/11/20 09:24:06;;;;;;;1.00;0.70;;;;;;;;;;5027070;28;20287;-69
2022/11/20 09:26:33;;;;;;;0.77;0.73;;;;;;;;;;5026105;28;20095;-70
2022/11/20 09:29:00;;;;;;;1.88;0.70;;;;;;;;;;5029121;28;20459;-70
2022/11/20 09:31:26;;;;;;;1.58;1.00;;;;;;;;;;5029723;28;20524;-72
2022/11/20 09:33:53;;;;;;;1.05;0.68;;;;;;;;;;5029462;28;20061;-70
2022/11/20 09:36:20;;;;;;;0.73;0.65;;;;;;;;;;5029728;28;20496;-69
2022/11/20 09:38:47;;;;;;;0.85;0.50;;;;;;;;;;5029141;28;20081;-70
2022/11/20 09:41:42;;;;;;;1.10;0.80;;;;;;;;;;5029985;28;20045;-70
2022/11/20 09:44:18;;;;;;;1.13;0.90;;;;;;;;;;5027213;28;20053;-69
2022/11/20 09:46:53;;;;;;;0.63;0.52;;;;;;;;;;5028474;28;20053;-70
2022/11/20 09:49:56;;;;;;;2.58;1.83;;;;;;;;;;5028213;28;20045;-70
2022/11/20 09:52:38;;;;;;;1.92;1.42;;;;;;;;;;4999634;28;20046;-70
2022/11/20 09:55:04;;;;;;;2.17;1.60;;;;;;;;;;5012201;28;20049;-71
2022/11/20 09:57:35;;;;;;;1.30;1.20;;;;;;;;;;5026413;28;20293;-71
2022/11/20 10:00:04;;;;;;;2.50;2.10;;;;;;;;;;4995132;28;20049;-71
2022/11/20 10:02:36;;;;;;;1.38;1.23;;;;;;;;;;5029202;28;20236;-74
2022/11/20 10:05:16;;;;;;;0.77;0.75;;;;;;;;;;5030571;28;20056;-71
2022/11/20 10:07:59;;;;;;;1.40;1.27;;;;;;;;;;5013039;28;20041;-73
2022/11/20 10:10:42;;;;;;;2.28;1.30;;;;;;;;;;5011540;28;20061;-71
2022/11/20 10:13:19;;;;;;;1.83;1.48;;;;;;;;;;5010294;28;20046;-69
2022/11/20 10:15:55;;;;;;;3.10;1.60;;;;;;;;;;5028456;28;20049;-71
2022/11/20 10:18:41;;;;;;;2.30;1.40;;;;;;;;;;5029151;28;20571;-70
2022/11/20 10:21:42;;;;;;;1.83;1.38;;;;;;;;;;5012809;28;20068;-70
2022/11/20 10:24:28;;;;;;;3.42;1.20;;;;;;;;;;5014294;28;20570;-72
2022/11/20 10:27:09;;;;;;;1.35;0.90;;;;;;;;;;5011663;28;20119;-68
2022/11/20 10:29:37;;;;;;;1.42;1.20;;;;;;;;;;5006881;28;20496;-69
2022/11/20 10:32:08;;;;;;;1.48;0.95;;;;;;;;;;5010848;28;20053;-69
2022/11/20 10:34:59;;;;;;;2.60;1.30;;;;;;;;;;5011948;28;20390;-69
2022/11/20 10:37:27;;;;;;;1.90;1.70;;;;;;;;;;5031486;28;20049;-74
2022/11/20 10:40:08;;;;;;;0.85;0.80;;;;;;;;;;5032440;28;20049;-72
2022/11/20 10:42:42;;;;;;;3.50;1.17;;;;;;;;;;5015966;28;20045;-71
2022/11/20 10:45:24;;;;;;;1.88;1.00;;;;;;;;;;5015385;28;20057;-71
2022/11/20 10:48:07;;;;;;;1.90;0.95;;;;;;;;;;5026519;28;20049;-72
2022/11/20 10:50:36;;;;;;;1.83;1.40;;;;;;;;;;5031924;28;20050;-71
2022/11/20 10:53:05;;;;;;;1.95;1.20;;;;;;;;;;4997768;28;20041;-68
2022/11/20 10:56:00;;;;;;;1.10;0.80;;;;;;;;;;5012393;28;20060;-71
2022/11/20 10:58:51;;;;;;;1.85;1.38;;;;;;;;;;5005894;28;20128;-71
2022/11/20 11:01:22;;;;;;;3.13;1.77;;;;;;;;;;4999622;28;20389;-69
2022/11/20 11:03:53;;;;;;;2.72;1.73;;;;;;;;;;5032386;28;20084;-69
2022/11/20 11:06:29;;;;;;;2.28;1.20;;;;;;;;;;4998213;28;20500;-70
2022/11/20 11:08:58;;;;;;;2.35;2.00;;;;;;;;;;5007230;28;20080;-69
2022/11/20 11:11:30;;;;;;;1.88;1.35;;;;;;;;;;4996645;28;20397;-71
2022/11/20 11:14:10;;;;;;;2.35;2.08;;;;;;;;;;5024905;28;20052;-69
2022/11/20 11:16:56;;;;;;;3.55;1.60;;;;;;;;;;5027310;28;20042;-75
2022/11/20 11:19:29;;;;;;;1.40;1.23;;;;;;;;;;5006481;28;20049;-77
2022/11/20 11:21:56;;;;;;;2.15;1.30;;;;;;;;;;5012566;28;20500;-76
2022/11/20 11:24:28;;;;;;;2.28;1.55;;;;;;;;;;4997734;28;20045;-75
2022/11/20 11:27:17;;;;;;;3.63;1.83;;;;;;;;;;5015228;28;20448;-71
2022/11/20 11:29:45;;;;;;;2.10;1.90;;;;;;;;;;5028514;28;20556;-69
2022/11/20 11:32:12;;;;;;;1.63;1.40;;;;;;;;;;5031053;28;20088;-70
2022/11/20 11:34:39;;;;;;;1.50;1.30;;;;;;;;;;5029661;28;20496;-74
2022/11/20 11:37:21;;;;;;;1.50;1.13;;;;;;;;;;5030863;28;20076;-70
2022/11/20 11:39:50;;;;;;;1.33;1.23;;;;;;;;;;5027853;28;20565;-72
2022/11/20 11:42:46;;;;;;;2.15;1.60;;;;;;;;;;5016052;28;20412;-73
2022/11/20 11:45:17;;;;;;;1.65;1.50;;;;;;;;;;4997224;28;20103;-73
2022/11/20 11:47:43;;;;;;;1.88;1.67;;;;;;;;;;4996122;28;20227;-68
2022/11/20 11:50:10;;;;;;;3.65;1.70;;;;;;;;;;5022375;28;20056;-68
2022/11/20 11:53:02;;;;;;;3.70;1.83;;;;;;;;;;5024032;28;20571;-68
2022/11/20 11:55:48;;;;;;;3.00;1.30;;;;;;;;;;5011075;28;20046;-69
2022/11/20 11:58:38;;;;;;;3.97;1.55;;;;;;;;;;5027528;28;20042;-69
2022/11/20 12:01:18;;;;;;;1.88;1.50;;;;;;;;;;5025764;28;20065;-68
2022/11/20 12:03:54;;;;;;;3.45;1.45;;;;;;;;;;5011163;28;20520;-69
2022/11/20 12:06:20;;;;;;;4.00;1.30;;;;;;;;;;4995703;28;20065;-69
2022/11/20 12:09:04;;;;;;;7.20;3.35;;;;;;;;;;5008856;28;20523;-69
2022/11/20 12:11:56;;;;;;;3.60;1.70;;;;;;;;;;5013006;28;20041;-69
2022/11/20 12:14:37;;;;;;;5.15;1.98;;;;;;;;;;5010680;28;20041;-68
2022/11/20 12:17:04;;;;;;;3.53;1.83;;;;;;;;;;5028701;28;20234;-69
2022/11/20 12:19:33;;;;;;;3.72;1.10;;;;;;;;;;5008116;28;20103;-70
2022/11/20 12:21:59;;;;;;;4.53;1.20;;;;;;;;;;5011046;28;20049;-69
2022/11/20 12:24:42;;;;;;;6.20;1.42;;;;;;;;;;5029113;28;20075;-66
2022/11/20 12:27:36;;;;;;;2.00;1.13;;;;;;;;;;5034513;28;20049;-64
2022/11/20 12:30:07;;;;;;;;;;;;;;;;;;5014521;28;20404;-69
2022/11/20 12:33:11;;;;;;;1.63;1.05;;;;;;;;;;5011812;28;20027;-69
2022/11/20 12:35:53;;;;;;;1.75;0.80;;;;;;;;;;5028802;28;20045;-66
2022/11/20 12:38:57;;;;;;;2.88;1.45;;;;;;;;;;5011118;28;20167;-67
2022/11/20 12:45:10;;;;;;;2.80;0.80;;;;;;;;;;5027388;28;20050;-67
2022/11/20 12:48:08;;;;;;;3.47;0.88;;;;;;;;;;5028436;28;20049;-67
2022/11/20 12:50:47;;;;;;;2.47;0.88;;;;;;;;;;5026451;28;20500;-66
2022/11/20 12:53:43;;;;;;;2.35;1.10;;;;;;;;;;5026632;28;20091;-67
2022/11/20 12:56:29;;;;;;;2.33;1.02;;;;;;;;;;5029199;28;20459;-68
2022/11/20 12:59:16;;;;;;;2.97;1.00;;;;;;;;;;5027729;28;20072;-70
2022/11/20 13:01:57;;;;;;;0.88;0.68;;;;;;;;;;5010500;28;20052;-69
2022/11/20 13:04:36;;;;;;;0.95;0.73;;;;;;;;;;4992077;28;20061;-68
2022/11/20 13:07:06;;;;;;;1.90;0.80;;;;;;;;;;5027982;28;20057;-69
2022/11/20 13:09:32;;;;;;;1.35;0.65;;;;;;;;;;4991623;28;20719;-67
2022/11/20 13:12:11;;;;;;;1.30;0.60;;;;;;;;;;5008153;28;20049;-70
2022/11/20 13:15:11;;;;;;;0.77;0.60;;;;;;;;;;5027253;28;20104;-67
2022/11/20 13:18:00;;;;;;;3.22;0.70;;;;;;;;;;4985420;28;20042;-71
2022/11/20 13:20:27;;;;;;;4.47;1.52;;;;;;;;;;5022924;28;20056;-68
2022/11/20 13:22:58;;;;;;;2.67;0.90;;;;;;;;;;5010344;28;20053;-69
2022/11/20 13:25:26;;;;;;;2.10;0.93;;;;;;;;;;5027139;28;20057;-69
2022/11/20 13:27:54;;;;;;;4.97;1.40;;;;;;;;;;5027125;28;20041;-69
2022/11/20 13:30:22;;;;;;;4.65;2.25;;;;;;;;;;5026454;28;20053;-68
2022/11/20 13:32:54;;;;;;;2.40;1.20;;;;;;;;;;5009014;28;20088;-70
2022/11/20 13:35:54;;;;;;;1.85;0.70;;;;;;;;;;5009649;28;20570;-69
2022/11/20 13:38:21;;;;;;;2.10;1.00;;;;;;;;;;5023522;28;20103;-69
2022/11/20 13:40:50;;;;;;;1.20;0.90;;;;;;;;;;5006769;28;20057;-70
2022/11/20 13:43:27;;;;;;;1.27;1.00;;;;;;;;;;5027569;28;20119;-71
2022/11/20 13:45:59;;;;;;;1.88;1.40;;;;;;;;;;5025173;28;20045;-69
2022/11/20 13:48:30;;;;;;;1.00;0.90;;;;;;;;;;5008332;28;20045;-68
2022/11/20 13:51:04;;;;;;;2.17;1.33;;;;;;;;;;5025638;28;20188;-69
2022/11/20 13:54:00;;;;;;;2.03;1.13;;;;;;;;;;5008301;28;20408;-69
2022/11/20 13:56:39;;;;;;;1.63;0.85;;;;;;;;;;5008473;28;20049;-68
2022/11/20 13:59:11;;;;;;;1.33;0.80;;;;;;;;;;5010920;28;20128;-70
2022/11/20 14:01:40;;;;;;;2.50;0.80;;;;;;;;;;5010115;28;20049;-69
2022/11/20 14:04:08;;;;;;;3.85;1.00;;;;;;;;;;4992299;28;20053;-70
2022/11/20 14:06:42;;;;;;;1.55;0.80;;;;;;;;;;5012371;28;20057;-68
2022/11/20 14:09:25;;;;;;;2.42;0.68;;;;;;;;;;5028462;28;20050;-68
2022/11/20 14:11:52;;;;;;;2.20;0.80;;;;;;;;;;5032878;28;20053;-68
2022/11/20 14:14:21;;;;;;;1.95;1.00;;;;;;;;;;5032850;28;20299;-67
2022/11/20 14:16:49;;;;;;;3.03;1.27;;;;;;;;;;5032784;28;20060;-66
2022/11/20 14:19:21;;;;;;;3.50;1.55;;;;;;;;;;5030925;28;20045;-67
2022/11/20 14:21:49;;;;;;;2.10;1.40;;;;;;;;;;5031113;28;20045;-68
2022/11/20 14:24:21;;;;;;;1.98;1.00;;;;;;;;;;5032760;28;20132;-67
2022/11/20 14:26:49;;;;;;;1.17;1.00;;;;;;;;;;5033036;28;20085;-66
2022/11/20 14:29:29;;;;;;;3.03;1.00;;;;;;;;;;4994812;28;20049;-68
2022/11/20 14:31:56;;;;;;;3.13;1.20;;;;;;;;;;4996166;28;20068;-68
2022/11/20 14:34:25;;;;;;;2.50;1.58;;;;;;;;;;5031491;28;20050;-67
2022/11/20 14:36:59;;;;;;;1.20;1.00;;;;;;;;;;5015949;28;20053;-68
2022/11/20 14:39:29;;;;;;;1.55;1.02;;;;;;;;;;5006646;28;20103;-68
2022/11/20 14:41:56;;;;;;;2.78;1.65;;;;;;;;;;5012117;28;20483;-67
2022/11/20 14:44:26;;;;;;;2.38;1.10;;;;;;;;;;5032706;28;20124;-69
2022/11/20 14:46:53;;;;;;;2.00;1.35;;;;;;;;;;4983646;28;20103;-70
2022/11/20 14:49:19;;;;;;;3.22;1.65;;;;;;;;;;5012348;28;20038;-68
2022/11/20 14:51:46;;;;;;;5.00;2.65;;;;;;;;;;5013614;28;20464;-71
2022/11/20 14:54:17;;;;;;;3.65;1.80;;;;;;;;;;5012903;28;20459;-72
2022/11/20 14:57:01;;;;;;;4.55;1.30;;;;;;;;;;5026133;28;20046;-74
2022/11/20 14:59:30;;;;;;;1.73;0.90;;;;;;;;;;5010349;28;20046;-72
2022/11/20 15:02:07;;;;;;;5.20;1.50;;;;;;;;;;5027565;28;20064;-73
2022/11/20 15:04:51;;;;;;;2.08;1.58;;;;;;;;;;5013068;28;20489;-74
2022/11/20 15:07:26;;;;;;;1.73;1.08;;;;;;;;;;4995617;28;20485;-73
2022/11/20 15:10:19;;;;;;;4.80;1.20;;;;;;;;;;5030433;28;20092;-73
2022/11/20 15:12:49;;;;;;;;;;;;;;;;;;5031568;28;20060;-73
2022/11/20 15:15:43;;;;;;;3.28;1.30;;;;;;;;;;5030976;28;19925;-71
2022/11/20 15:18:14;;;;;;;2.97;1.60;;;;;;;;;;5016380;28;20215;-71